createdAt,value
2022-11-15T00:02:13.225Z,71.60
2022-11-15T00:05:17.765Z,71.70
2022-11-15T00:08:23.570Z,71.40
2022-11-15T00:11:30.480Z,71.40
2022-11-15T00:14:33.860Z,71.40
2022-11-15T00:17:37.274Z,71.60
2022-11-15T00:20:42.816Z,71.40
2022-11-15T00:23:47.226Z,71.30
2022-11-15T00:26:50.474Z,71.30
2022-11-15T00:29:54.248Z,71.30
2022-11-15T00:32:58.515Z,71.30
2022-11-15T00:36:03.349Z,71.20
2022-11-15T00:39:07.691Z,70.80
2022-11-15T00:42:11.515Z,71.10
2022-11-15T00:45:14.782Z,71.20
2022-11-15T00:48:18.012Z,71.30
2022-11-15T00:51:21.472Z,71.40
2022-11-15T00:54:26.003Z,71.30
2022-11-15T00:57:29.257Z,71.20
2022-11-15T01:00:32.567Z,71.10
2022-11-15T01:03:35.789Z,71.20
2022-11-15T01:06:38.981Z,71.10
2022-11-15T01:09:43.522Z,71.00
2022-11-15T01:12:46.752Z,71.00
2022-11-15T01:15:49.927Z,71.10
2022-11-15T01:18:53.055Z,71.00
2022-11-15T01:21:56.437Z,71.00
2022-11-15T01:25:01.318Z,70.90
2022-11-15T01:28:04.767Z,70.80
2022-11-15T01:31:13.677Z,70.90
2022-11-15T01:34:17.125Z,70.90
2022-11-15T01:37:20.381Z,71.00
2022-11-15T01:40:25.201Z,71.00
2022-11-15T01:43:34.189Z,70.70
2022-11-15T01:46:39.852Z,70.50
2022-11-15T01:49:57.931Z,70.70
2022-11-15T01:53:02.159Z,70.40
2022-11-15T01:56:10.400Z,70.60
2022-11-15T01:59:14.464Z,70.30
2022-11-15T02:02:18.187Z,70.70
2022-11-15T02:05:21.921Z,70.60
2022-11-15T02:08:25.260Z,71.20
2022-11-15T02:11:30.770Z,70.70
2022-11-15T02:14:35.190Z,70.60
2022-11-15T02:18:05.236Z,70.70
2022-11-15T02:21:23.037Z,70.60
2022-11-15T02:25:03.281Z,70.70
2022-11-15T02:28:47.727Z,70.50
2022-11-15T02:32:04.437Z,70.30
2022-11-15T02:35:20.528Z,70.40
2022-11-15T02:38:38.693Z,70.40
2022-11-15T02:41:50.075Z,70.50
2022-11-15T02:44:56.680Z,70.40
2022-11-15T02:48:05.905Z,70.60
2022-11-15T02:51:10.298Z,70.40
2022-11-15T02:54:17.562Z,70.50
2022-11-15T02:57:34.489Z,70.30
2022-11-15T03:00:45.615Z,70.90
2022-11-15T03:04:04.629Z,70.40
2022-11-15T03:07:18.079Z,70.20
2022-11-15T03:10:28.650Z,70.10
2022-11-15T03:13:41.615Z,70.00
2022-11-15T03:16:52.865Z,70.00
2022-11-15T03:20:02.044Z,70.10
2022-11-15T03:23:10.922Z,69.80
2022-11-15T03:26:18.800Z,69.80
2022-11-15T03:29:31.658Z,69.80
2022-11-15T03:32:42.225Z,70.20
2022-11-15T03:35:49.909Z,70.20
2022-11-15T03:38:58.956Z,70.40
2022-11-15T03:42:17.317Z,70.60
2022-11-15T03:45:28.196Z,70.90
2022-11-15T03:48:39.227Z,70.70
2022-11-15T03:51:44.009Z,71.10
2022-11-15T03:54:56.135Z,70.70
2022-11-15T03:58:02.995Z,71.00
2022-11-15T04:01:06.313Z,71.30
2022-11-15T04:04:10.585Z,71.50
2022-11-15T04:07:15.567Z,71.50
2022-11-15T04:10:21.074Z,71.50
2022-11-15T04:13:24.349Z,71.40
2022-11-15T04:16:27.401Z,71.70
2022-11-15T04:19:48.373Z,71.60
2022-11-15T04:23:09.421Z,71.60
2022-11-15T04:26:18.432Z,71.40
2022-11-15T04:29:36.737Z,71.50
2022-11-15T04:32:40.404Z,71.60
2022-11-15T04:36:05.490Z,71.70
2022-11-15T04:39:09.965Z,71.80
2022-11-15T04:42:13.392Z,71.80
2022-11-15T04:45:17.070Z,72.10
2022-11-15T04:48:21.249Z,72.10
2022-11-15T04:51:24.620Z,72.10
2022-11-15T04:54:29.262Z,72.10
2022-11-15T04:57:32.511Z,72.00
2022-11-15T05:00:35.961Z,72.50
2022-11-15T05:03:57.270Z,72.20
2022-11-15T05:07:00.418Z,71.60
2022-11-15T05:10:05.674Z,71.90
2022-11-15T05:13:09.624Z,71.70
2022-11-15T05:16:12.780Z,71.80
2022-11-15T05:19:16.369Z,71.60
2022-11-15T05:22:19.825Z,71.60
2022-11-15T05:25:24.924Z,71.60
2022-11-15T05:28:28.265Z,71.80
2022-11-15T05:31:31.472Z,71.90
2022-11-15T05:34:35.874Z,72.10
2022-11-15T05:37:39.066Z,72.20
2022-11-15T05:40:43.985Z,72.10
2022-11-15T05:43:49.780Z,72.10
2022-11-15T05:47:00.979Z,71.90
2022-11-15T05:50:05.221Z,71.80
2022-11-15T05:53:09.650Z,71.90
2022-11-15T05:56:15.139Z,71.90
2022-11-15T05:59:20.366Z,71.80
2022-11-15T06:02:24.367Z,71.90
2022-11-15T06:05:28.399Z,72.00
2022-11-15T06:08:31.801Z,72.10
2022-11-15T06:11:36.593Z,72.20
2022-11-15T06:14:40.549Z,72.20
2022-11-15T06:17:46.419Z,71.60
2022-11-15T06:20:49.800Z,72.10
2022-11-15T06:23:53.108Z,72.20
2022-11-15T06:26:58.570Z,72.20
2022-11-15T06:30:02.789Z,72.30
2022-11-15T06:33:07.459Z,72.20
2022-11-15T06:36:18.345Z,72.10
2022-11-15T06:39:21.689Z,72.00
2022-11-15T06:42:26.495Z,72.10
2022-11-15T06:45:29.876Z,72.40
2022-11-15T06:48:34.832Z,72.30
2022-11-15T06:51:37.907Z,72.50
2022-11-15T06:54:41.088Z,72.40
2022-11-15T06:57:52.399Z,72.70
2022-11-15T07:00:56.342Z,72.70
2022-11-15T07:03:59.674Z,72.70
2022-11-15T07:07:03.520Z,72.80
2022-11-15T07:10:08.709Z,73.00
2022-11-15T07:13:13.167Z,72.80
2022-11-15T07:16:16.455Z,72.30
2022-11-15T07:19:19.575Z,72.80
2022-11-15T07:22:22.774Z,72.60
2022-11-15T07:25:26.463Z,72.70
2022-11-15T07:28:31.279Z,72.80
2022-11-15T07:31:35.077Z,72.80
2022-11-15T07:34:38.551Z,72.90
2022-11-15T07:37:41.811Z,73.10
2022-11-15T07:40:44.909Z,73.20
2022-11-15T07:43:49.473Z,73.10
2022-11-15T07:46:52.588Z,73.20
2022-11-15T07:49:55.698Z,73.30
2022-11-15T07:53:01.171Z,73.60
2022-11-15T07:56:04.542Z,73.60
2022-11-15T07:59:09.358Z,73.70
2022-11-15T08:02:12.751Z,73.80
2022-11-15T08:05:16.583Z,73.80
2022-11-15T08:08:20.587Z,73.80
2022-11-15T08:11:23.983Z,73.70
2022-11-15T08:14:29.151Z,73.90
2022-11-15T08:17:34.842Z,74.00
2022-11-15T08:20:38.415Z,74.00
2022-11-15T08:23:41.507Z,74.00
2022-11-15T08:26:45.491Z,74.00
2022-11-15T08:29:55.554Z,74.00
2022-11-15T08:33:02.540Z,73.90
2022-11-15T08:36:06.575Z,73.90
2022-11-15T08:39:13.336Z,74.00
2022-11-15T08:42:20.092Z,74.00
2022-11-15T08:45:25.033Z,74.00
2022-11-15T08:48:28.471Z,74.00
2022-11-15T08:51:31.887Z,73.90
2022-11-15T08:54:35.155Z,74.10
2022-11-15T08:57:38.408Z,74.20
2022-11-15T09:00:43.672Z,74.10
2022-11-15T09:03:47.068Z,74.10
2022-11-15T09:06:50.326Z,74.10
2022-11-15T09:09:53.603Z,74.30
2022-11-15T09:12:58.792Z,74.40
2022-11-15T09:16:04.200Z,74.40
2022-11-15T09:19:11.937Z,74.60
2022-11-15T09:22:15.588Z,74.70
2022-11-15T09:25:19.275Z,74.80
2022-11-15T09:28:22.844Z,74.80
2022-11-15T09:31:27.735Z,74.90
2022-11-15T09:34:30.921Z,74.90
2022-11-15T09:37:34.503Z,74.90
2022-11-15T09:40:40.029Z,75.30
2022-11-15T09:43:57.604Z,74.90
2022-11-15T09:47:26.384Z,75.00
2022-11-15T09:50:42.656Z,75.20
2022-11-15T09:54:30.880Z,75.30
2022-11-15T09:57:31.959Z,75.30
2022-11-15T10:00:48.605Z,75.20
2022-11-15T10:03:53.953Z,75.40
2022-11-15T10:07:07.837Z,74.80
2022-11-15T10:10:19.587Z,75.00
2022-11-15T10:13:28.793Z,75.00
2022-11-15T10:17:34.865Z,75.00
2022-11-15T10:21:09.704Z,75.20
2022-11-15T10:24:14.718Z,75.10
2022-11-15T10:27:20.918Z,75.10
2022-11-15T10:30:30.729Z,74.80
2022-11-15T10:33:36.651Z,75.40
2022-11-15T10:36:50.343Z,75.40
2022-11-15T10:40:07.325Z,75.50
2022-11-15T10:43:19.195Z,75.60
2022-11-15T10:46:46.732Z,75.50
2022-11-15T10:50:05.576Z,75.40
2022-11-15T10:53:25.519Z,75.40
2022-11-15T10:56:30.205Z,75.40
2022-11-15T10:59:39.391Z,75.20
2022-11-15T11:02:59.875Z,75.00
2022-11-15T11:06:10.361Z,75.00
2022-11-15T11:09:31.557Z,74.90
2022-11-15T11:12:36.024Z,75.10
2022-11-15T11:15:39.925Z,74.90
2022-11-15T11:18:58.744Z,74.90
2022-11-15T11:22:17.097Z,75.10
2022-11-15T11:25:36.864Z,75.20
2022-11-15T11:28:54.614Z,75.30
2022-11-15T11:32:11.108Z,75.30
2022-11-15T11:35:22.466Z,75.00
2022-11-15T11:39:00.390Z,75.10
2022-11-15T11:42:18.937Z,75.00
2022-11-15T11:45:47.356Z,74.70
2022-11-15T11:48:58.644Z,74.60
2022-11-15T11:52:13.082Z,75.00
2022-11-15T11:55:18.714Z,74.80
2022-11-15T11:58:35.313Z,75.00
2022-11-15T12:01:44.795Z,74.80
2022-11-15T12:04:54.635Z,74.80
2022-11-15T12:08:11.345Z,74.60
2022-11-15T12:11:22.562Z,74.80
2022-11-15T12:14:38.503Z,74.50
2022-11-15T12:17:43.954Z,74.70
2022-11-15T12:21:01.678Z,74.40
2022-11-15T12:24:10.325Z,74.10
2022-11-15T12:27:26.521Z,74.30
2022-11-15T12:30:47.294Z,74.00
2022-11-15T12:33:52.133Z,73.30
2022-11-15T12:36:55.571Z,73.60
2022-11-15T12:40:33.394Z,73.70
2022-11-15T12:43:43.467Z,73.50
2022-11-15T12:47:24.781Z,73.70
2022-11-15T12:50:59.087Z,73.60
2022-11-15T12:54:23.157Z,73.40
2022-11-15T12:57:37.693Z,73.60
2022-11-15T13:00:41.490Z,74.10
2022-11-15T13:04:25.717Z,73.80
2022-11-15T13:07:59.038Z,73.60
2022-11-15T13:11:49.603Z,73.20
2022-11-15T13:14:57.179Z,73.20
2022-11-15T13:18:02.616Z,73.50
2022-11-15T13:21:45.444Z,73.50
2022-11-15T13:24:48.826Z,73.80
2022-11-15T13:27:55.942Z,73.60
2022-11-15T13:31:02.284Z,73.50
2022-11-15T13:34:49.942Z,73.60
2022-11-15T13:37:49.260Z,73.50
2022-11-15T13:40:56.862Z,74.50
2022-11-15T13:44:27.665Z,73.60
2022-11-15T13:47:32.593Z,73.60
2022-11-15T13:50:41.077Z,73.50
2022-11-15T13:53:56.390Z,74.10
2022-11-15T13:57:05.903Z,73.30
2022-11-15T14:00:33.271Z,73.50
2022-11-15T14:03:48.545Z,73.50
2022-11-15T14:06:55.488Z,73.50
2022-11-15T14:09:58.982Z,73.50
2022-11-15T14:13:07.354Z,73.40
2022-11-15T14:16:23.642Z,73.50
2022-11-15T14:19:42.927Z,73.10
2022-11-15T14:22:55.844Z,73.40
2022-11-15T14:26:07.481Z,73.60
2022-11-15T14:29:29.167Z,73.70
2022-11-15T14:32:45.832Z,73.70
2022-11-15T14:35:50.298Z,73.70
2022-11-15T14:38:55.795Z,73.60
2022-11-15T14:42:05.956Z,73.30
2022-11-15T14:45:19.039Z,72.80
2022-11-15T14:48:24.062Z,72.30
2022-11-15T14:51:27.926Z,72.00
2022-11-15T14:54:31.704Z,72.10
2022-11-15T14:57:36.364Z,72.10
2022-11-15T15:00:42.800Z,72.20
2022-11-15T15:03:47.978Z,72.10
2022-11-15T15:06:51.304Z,72.10
2022-11-15T15:10:02.741Z,72.20
2022-11-15T15:13:21.567Z,72.20
2022-11-15T15:16:25.585Z,72.30
2022-11-15T15:19:30.207Z,72.20
2022-11-15T15:22:33.850Z,72.10
2022-11-15T15:25:37.447Z,72.00
2022-11-15T15:28:41.166Z,71.90
2022-11-15T15:31:45.970Z,71.80
2022-11-15T15:34:51.696Z,71.60
2022-11-15T15:37:56.970Z,71.30
2022-11-15T15:41:02.850Z,71.20
2022-11-15T15:44:06.056Z,71.30
2022-11-15T15:47:14.469Z,71.20
2022-11-15T15:50:26.910Z,71.00
2022-11-15T15:53:31.589Z,70.60
2022-11-15T15:56:35.105Z,70.50
2022-11-15T15:59:38.464Z,70.40
2022-11-15T16:02:42.709Z,70.40
2022-11-15T16:05:47.212Z,70.20
2022-11-15T16:09:13.731Z,69.80
2022-11-15T16:12:16.218Z,69.60
2022-11-15T16:15:20.537Z,69.90
2022-11-15T16:18:23.889Z,70.00
2022-11-15T16:21:30.396Z,69.90
2022-11-15T16:24:34.487Z,70.00
2022-11-15T16:27:46.252Z,70.10
2022-11-15T16:30:57.815Z,70.20
2022-11-15T16:34:12.199Z,70.80
2022-11-15T16:41:00.779Z,70.00
2022-11-15T16:44:04.732Z,70.00
2022-11-15T16:47:20.478Z,70.10
2022-11-15T16:50:27.590Z,70.00
2022-11-15T16:53:32.672Z,70.00
2022-11-15T16:56:37.304Z,69.60
2022-11-15T16:59:42.793Z,69.60
2022-11-15T17:02:50.393Z,69.30
2022-11-15T17:05:59.397Z,69.10
2022-11-15T17:09:06.980Z,68.80
2022-11-15T17:12:12.054Z,69.70
2022-11-15T17:15:16.783Z,69.10
2022-11-15T17:18:22.029Z,69.10
2022-11-15T17:21:35.613Z,68.70
2022-11-15T17:24:45.289Z,68.90
2022-11-15T17:27:48.966Z,68.70
2022-11-15T17:30:52.211Z,68.20
2022-11-15T17:33:55.603Z,68.20
2022-11-15T17:36:58.786Z,67.80
2022-11-15T17:40:03.622Z,67.90
2022-11-15T17:43:10.626Z,67.40
2022-11-15T17:46:21.405Z,67.70
2022-11-15T17:49:25.514Z,67.90
2022-11-15T17:52:33.469Z,68.20
2022-11-15T17:55:45.730Z,67.90
2022-11-15T17:58:51.650Z,67.90
2022-11-15T18:05:19.111Z,67.80
2022-11-15T18:08:25.831Z,67.90
2022-11-15T18:11:34.781Z,68.00
2022-11-15T18:14:40.111Z,68.00
2022-11-15T18:17:43.863Z,67.70
2022-11-15T18:20:48.331Z,67.90
2022-11-15T18:23:58.935Z,68.20
2022-11-15T18:27:09.471Z,68.10
2022-11-15T18:30:18.170Z,68.10
2022-11-15T18:33:27.330Z,68.10
2022-11-15T18:36:34.205Z,68.90
2022-11-15T18:39:40.375Z,68.10
2022-11-15T18:42:53.399Z,68.30
2022-11-15T18:45:56.989Z,68.20
2022-11-15T18:49:03.393Z,68.30
2022-11-15T18:52:09.474Z,68.40
2022-11-15T18:55:16.011Z,68.60
2022-11-15T18:58:21.399Z,69.00
2022-11-15T19:01:29.711Z,68.60
2022-11-15T19:04:33.484Z,68.40
2022-11-15T19:07:38.286Z,68.50
2022-11-15T19:10:43.584Z,68.40
2022-11-15T19:13:49.886Z,68.50
2022-11-15T19:16:54.857Z,68.50
2022-11-15T19:19:58.555Z,69.10
2022-11-15T19:23:03.047Z,68.70
2022-11-15T19:26:13.300Z,68.70
2022-11-15T19:29:18.430Z,68.80
2022-11-15T19:32:22.272Z,69.30
2022-11-15T19:35:26.905Z,69.50
2022-11-15T19:38:35.878Z,69.40
2022-11-15T19:41:50.834Z,69.30
2022-11-15T19:44:58.334Z,69.50
2022-11-15T19:48:02.185Z,69.70
2022-11-15T19:51:09.452Z,69.70
2022-11-15T19:54:13.676Z,69.90
2022-11-15T19:57:19.613Z,70.00
2022-11-15T20:00:24.720Z,70.00
2022-11-15T20:03:31.262Z,70.40
2022-11-15T20:06:39.351Z,70.70
2022-11-15T20:09:44.319Z,70.20
2022-11-15T20:12:50.302Z,70.50
2022-11-15T20:15:56.575Z,70.90
2022-11-15T20:19:04.167Z,71.00
2022-11-15T20:22:08.240Z,71.10
2022-11-15T20:25:12.546Z,71.30
2022-11-15T20:28:20.132Z,71.40
2022-11-15T20:31:32.284Z,71.40
2022-11-15T20:34:35.612Z,72.00
2022-11-15T20:37:39.291Z,71.40
2022-11-15T20:40:45.846Z,71.60
2022-11-15T20:43:50.096Z,71.70
2022-11-15T20:46:56.042Z,71.80
2022-11-15T20:50:14.948Z,72.40
2022-11-15T20:53:28.039Z,72.10
2022-11-15T20:56:34.845Z,72.10
2022-11-15T20:59:38.006Z,72.20
2022-11-15T21:02:43.838Z,72.20
2022-11-15T21:05:47.532Z,71.80
2022-11-15T21:09:09.824Z,71.80
2022-11-15T21:12:14.928Z,71.70
2022-11-15T21:15:18.883Z,71.80
2022-11-15T21:18:24.410Z,71.60
2022-11-15T21:21:27.700Z,71.70
2022-11-15T21:24:35.635Z,71.70
2022-11-15T21:27:39.595Z,71.70
2022-11-15T21:30:44.067Z,72.40
2022-11-15T21:33:49.598Z,71.90
2022-11-15T21:36:55.683Z,72.30
2022-11-15T21:39:59.972Z,72.60
2022-11-15T21:43:03.798Z,73.00
2022-11-15T21:46:11.203Z,74.10
2022-11-15T21:49:17.370Z,74.00
2022-11-15T21:52:26.094Z,73.50
2022-11-15T21:55:33.527Z,74.10
2022-11-15T21:58:49.158Z,74.80
2022-11-15T22:02:12.295Z,74.80
2022-11-15T22:05:17.883Z,74.80
2022-11-15T22:08:22.894Z,74.90
2022-11-15T22:11:26.467Z,75.00
2022-11-15T22:14:29.854Z,75.20
2022-11-15T22:17:46.939Z,75.10
2022-11-15T22:21:01.139Z,75.30
2022-11-15T22:24:06.754Z,75.70
2022-11-15T22:27:12.589Z,75.40
2022-11-15T22:30:16.939Z,75.90
2022-11-15T22:33:22.965Z,75.70
2022-11-15T22:36:35.981Z,75.80
2022-11-15T22:39:50.468Z,75.70
2022-11-15T22:42:53.798Z,75.60
2022-11-15T22:45:59.166Z,75.40
2022-11-15T22:49:03.550Z,75.30
2022-11-15T22:52:08.956Z,75.40
2022-11-15T22:55:13.047Z,75.40
2022-11-15T22:58:16.825Z,75.70
2022-11-15T23:01:23.935Z,75.20
2022-11-15T23:04:28.211Z,75.10
2022-11-15T23:07:33.806Z,75.00
2022-11-15T23:10:57.449Z,74.80
2022-11-15T23:14:06.335Z,74.70
2022-11-15T23:17:10.586Z,74.60
2022-11-15T23:20:36.797Z,74.50
2022-11-15T23:23:38.974Z,74.90
2022-11-15T23:26:45.667Z,74.50
2022-11-15T23:30:07.810Z,74.40
2022-11-15T23:33:33.717Z,74.50
2022-11-15T23:36:42.497Z,74.60
2022-11-15T23:39:50.320Z,74.60
2022-11-15T23:42:54.199Z,74.80
2022-11-15T23:46:00.753Z,75.20
2022-11-15T23:49:05.745Z,74.70
2022-11-15T23:52:09.635Z,74.70
2022-11-15T23:55:14.940Z,74.70
2022-11-15T23:58:18.240Z,74.80
